Time;durP1;ratioP1;P1;durP2;ratioP2;P2;SDS_P1;SDS_P2;PMS_P1;PMS_P2;Temp;Humidity;BMP_temperature;BMP_pressure;BME280_temperature;BME280_humidity;BME280_pressure;Samples;Min_cycle;Max_cycle;Signal;HPM_P1;HPM_P2
2022/06/18 00:01:35;;;;;;;1.33;1.23;;;;;;;17.41;70.35;96475.03;5030078;28;24988;-75
2022/06/18 00:04:05;;;;;;;2.57;2.10;;;;;;;17.45;70.03;96476.47;5030456;28;24435;-75
2022/06/18 00:06:35;;;;;;;2.40;1.63;;;;;;;17.44;70.16;96472.19;5027534;28;24428;-75
2022/06/18 00:09:02;;;;;;;2.60;1.80;;;;;;;17.46;70.18;96474.69;5025212;28;24439;-75
2022/06/18 00:14:27;;;;;;;4.38;1.50;;;;;;;17.35;70.63;96483.38;4969189;28;24476;-75
2022/06/18 00:16:53;;;;;;;2.17;1.52;;;;;;;17.23;71.32;96484.34;4968886;28;24860;-75
2022/06/18 00:19:21;;;;;;;2.03;1.60;;;;;;;17.11;71.78;96488.75;4995247;28;24930;-75
2022/06/18 00:21:48;;;;;;;2.72;1.52;;;;;;;17.18;71.54;96485.53;5031159;22;24841;-74
2022/06/18 00:24:18;;;;;;;3.47;1.52;;;;;;;17.26;71.32;96486.72;5018396;28;24809;-76
2022/06/18 00:26:45;;;;;;;1.67;1.40;;;;;;;17.37;70.37;96486.72;5023205;28;24836;-77
2022/06/18 00:29:14;;;;;;;4.30;1.50;;;;;;;17.40;69.86;96479.44;5030263;28;24416;-76
2022/06/18 00:31:41;;;;;;;2.63;1.75;;;;;;;17.39;70.37;96475.19;5030211;28;24420;-77
2022/06/18 00:34:08;;;;;;;3.30;1.60;;;;;;;17.26;71.47;96473.63;5030034;28;25013;-76
2022/06/18 00:36:38;;;;;;;4.80;2.00;;;;;;;17.16;71.40;96465.66;5029745;28;24420;-77
2022/06/18 00:39:05;;;;;;;2.80;1.67;;;;;;;17.17;71.47;96465.56;5030235;28;24423;-77
2022/06/18 00:41:34;;;;;;;3.10;1.80;;;;;;;17.09;71.12;96461.84;5030909;28;24454;-77
2022/06/18 00:44:05;;;;;;;2.38;1.58;;;;;;;17.25;70.88;96462.34;5033955;28;24428;-76
2022/06/18 00:46:36;;;;;;;2.30;1.40;;;;;;;17.31;70.39;96453.97;5033390;28;24435;-76
2022/06/18 00:49:07;;;;;;;2.70;1.60;;;;;;;17.47;69.72;96455.41;5033486;28;24420;-76
2022/06/18 00:51:41;;;;;;;4.53;1.87;;;;;;;17.16;71.24;96453.41;5033729;28;24431;-77
2022/06/18 00:54:15;;;;;;;3.28;2.22;;;;;;;16.93;71.98;96457.81;5033727;28;24778;-77
2022/06/18 00:56:48;;;;;;;3.75;2.20;;;;;;;16.63;74.64;96460.97;5032797;28;24431;-77
2022/06/18 00:59:21;;;;;;;3.33;1.98;;;;;;;16.48;75.68;96461.31;5025135;28;24458;-77
2022/06/18 01:01:49;;;;;;;2.60;1.67;;;;;;;16.53;75.10;96467.00;5033410;28;24459;-77
2022/06/18 01:04:25;;;;;;;2.35;1.60;;;;;;;16.61;74.62;96465.50;5033505;28;24435;-76
2022/06/18 01:07:00;;;;;;;2.53;1.58;;;;;;;16.71;74.03;96463.00;5033103;28;24465;-77
2022/06/18 01:09:27;;;;;;;3.97;1.85;;;;;;;16.77;73.48;96462.56;5033304;28;24872;-77
2022/06/18 01:11:55;;;;;;;1.85;1.70;;;;;;;16.69;74.65;96463.13;5032958;28;24424;-77
2022/06/18 01:14:24;;;;;;;2.17;1.50;;;;;;;16.72;73.69;96455.97;5033395;28;24422;-77
2022/06/18 01:16:50;;;;;;;3.10;1.40;;;;;;;16.73;73.04;96457.66;5032955;28;24431;-77
2022/06/18 01:19:22;;;;;;;2.38;1.33;;;;;;;16.78;72.37;96461.63;5033375;28;24420;-76
2022/06/18 01:21:59;;;;;;;2.58;1.52;;;;;;;16.83;71.97;96456.03;5032705;28;24993;-76
2022/06/18 01:24:36;;;;;;;1.48;1.38;;;;;;;16.86;71.72;96451.38;5032877;28;24415;-77
2022/06/18 01:27:04;;;;;;;2.20;1.50;;;;;;;16.89;70.81;96447.72;5032948;28;24424;-76
2022/06/18 01:29:30;;;;;;;3.63;1.30;;;;;;;16.78;70.76;96440.69;5033210;28;24414;-77
2022/06/18 01:31:57;;;;;;;1.70;1.20;;;;;;;16.77;71.61;96443.44;5033000;28;24837;-77
2022/06/18 01:34:23;;;;;;;1.52;1.27;;;;;;;16.88;70.93;96436.41;5032998;28;24428;-76
2022/06/18 01:36:51;;;;;;;4.75;1.35;;;;;;;16.89;70.83;96432.00;5032489;28;24461;-77
2022/06/18 01:39:23;;;;;;;5.95;1.90;;;;;;;16.88;70.53;96431.19;5032766;28;24412;-76
2022/06/18 01:41:55;;;;;;;1.90;1.55;;;;;;;16.77;71.10;96433.78;5032670;28;24483;-77
2022/06/18 01:44:25;;;;;;;2.15;1.50;;;;;;;16.77;71.57;96432.97;5032882;28;24497;-76
2022/06/18 01:46:56;;;;;;;2.33;1.48;;;;;;;16.73;72.41;96428.91;5032325;28;24412;-77
2022/06/18 01:49:26;;;;;;;3.83;1.53;;;;;;;16.70;72.60;96427.34;5032694;28;24423;-77
2022/06/18 01:51:56;;;;;;;1.90;1.63;;;;;;;16.63;73.35;96429.59;5032876;28;24427;-77
2022/06/18 01:54:26;;;;;;;2.40;1.73;;;;;;;16.57;73.82;96430.03;5031629;28;24420;-77
2022/06/18 01:57:00;;;;;;;2.97;1.90;;;;;;;16.33;76.34;96430.13;5032033;28;24833;-77
2022/06/18 01:59:31;;;;;;;3.20;1.70;;;;;;;16.23;76.72;96425.72;5032266;28;24945;-76
2022/06/18 02:01:58;;;;;;;2.20;1.60;;;;;;;16.25;76.48;96421.22;5031939;28;24509;-77
2022/06/18 02:04:26;;;;;;;3.00;1.92;;;;;;;16.16;77.46;96420.94;5032443;28;24454;-76
2022/06/18 02:06:53;;;;;;;1.92;1.77;;;;;;;16.16;77.31;96414.88;5032015;28;24466;-76
2022/06/18 02:09:33;;;;;;;3.17;2.30;;;;;;;16.16;77.33;96410.47;5032402;28;24430;-77
2022/06/18 02:12:04;;;;;;;3.25;2.10;;;;;;;16.10;78.08;96404.91;5032008;28;24420;-77
2022/06/18 02:14:33;;;;;;;4.15;2.38;;;;;;;16.10;78.26;96402.28;5031908;28;24816;-76
2022/06/18 02:17:03;;;;;;;2.75;2.10;;;;;;;15.98;79.02;96398.78;5031996;28;24460;-77
2022/06/18 02:19:31;;;;;;;4.18;2.40;;;;;;;15.87;79.54;96397.00;5032005;28;24507;-76
2022/06/18 02:21:59;;;;;;;3.28;1.90;;;;;;;15.77;80.89;96388.16;5031739;28;24467;-76
2022/06/18 02:24:27;;;;;;;2.40;2.20;;;;;;;15.80;80.33;96387.13;5031791;28;24423;-76
2022/06/18 02:26:53;;;;;;;3.00;1.90;;;;;;;15.76;80.69;96388.25;5031458;28;24526;-76
2022/06/18 02:29:26;;;;;;;3.22;1.98;;;;;;;15.79;79.96;96383.63;5031658;28;24482;-77
2022/06/18 02:31:54;;;;;;;3.80;1.98;;;;;;;15.85;78.87;96383.19;5031840;28;24507;-76
2022/06/18 02:34:24;;;;;;;1.50;1.33;;;;;;;15.92;77.93;96386.19;5031847;28;24428;-77
2022/06/18 02:36:51;;;;;;;1.77;1.52;;;;;;;16.00;77.24;96386.44;5031546;28;24781;-76
2022/06/18 02:39:26;;;;;;;1.83;1.58;;;;;;;16.04;76.92;96380.03;5031545;28;24999;-76
2022/06/18 02:42:00;;;;;;;3.05;1.58;;;;;;;16.06;76.27;96396.47;5031596;28;24526;-77
2022/06/18 02:44:28;;;;;;;2.50;1.40;;;;;;;16.06;76.76;96391.22;5031616;28;24507;-77
2022/06/18 02:46:55;;;;;;;2.17;1.75;;;;;;;16.06;76.52;96387.78;5031169;28;24465;-77
2022/06/18 02:49:22;;;;;;;3.17;1.90;;;;;;;16.06;75.39;96386.00;5031231;28;25072;-76
2022/06/18 02:51:49;;;;;;;1.67;1.17;;;;;;;16.10;75.24;96391.84;5031152;28;25003;-77
2022/06/18 02:54:19;;;;;;;1.73;1.27;;;;;;;16.13;74.50;96392.44;5031510;28;24408;-77
2022/06/18 02:56:47;;;;;;;1.83;1.38;;;;;;;16.13;74.84;96388.97;5030902;28;24990;-76
2022/06/18 02:59:13;;;;;;;2.65;1.55;;;;;;;16.12;74.73;96387.31;5031224;28;24435;-77
2022/06/18 03:01:41;;;;;;;1.50;1.25;;;;;;;16.08;74.86;96394.53;5031182;28;24451;-76
2022/06/18 03:04:07;;;;;;;2.47;1.60;;;;;;;16.03;75.56;96395.84;5031016;28;24431;-76
2022/06/18 03:06:34;;;;;;;2.25;1.60;;;;;;;15.97;75.55;96389.28;5030640;28;24462;-76
2022/06/18 03:09:01;;;;;;;1.88;1.40;;;;;;;15.86;75.96;96389.25;5031233;28;24415;-77
2022/06/18 03:14:15;;;;;;;2.17;1.50;;;;;;;15.79;76.64;96388.88;5023773;28;25098;-76
2022/06/18 03:16:43;;;;;;;3.67;1.73;;;;;;;15.82;76.04;96387.81;5022665;28;24432;-77
2022/06/18 03:19:19;;;;;;;2.85;1.50;;;;;;;15.85;76.14;96379.75;5030372;28;24431;-77
2022/06/18 03:21:48;;;;;;;1.77;1.45;;;;;;;15.89;75.95;96382.03;5030212;28;24542;-77
2022/06/18 03:24:15;;;;;;;1.30;1.13;;;;;;;15.89;75.72;96387.25;5030225;28;24415;-76
2022/06/18 03:26:41;;;;;;;1.95;1.35;;;;;;;15.89;75.35;96381.19;5030851;28;24427;-77
2022/06/18 03:29:09;;;;;;;2.17;1.58;;;;;;;15.89;76.06;96386.41;5019711;28;24424;-77
2022/06/18 03:31:36;;;;;;;1.48;1.35;;;;;;;15.83;76.16;96389.47;5030217;28;24539;-76
2022/06/18 03:34:04;;;;;;;1.17;1.08;;;;;;;15.85;75.60;96392.81;5030975;28;24946;-76
2022/06/18 03:36:31;;;;;;;1.90;1.70;;;;;;;15.92;76.92;96391.41;5030479;28;24786;-76
2022/06/18 03:38:58;;;;;;;4.18;1.67;;;;;;;15.82;77.13;96387.81;5026279;28;24434;-76
2022/06/18 03:41:25;;;;;;;2.83;1.70;;;;;;;15.52;79.38;96389.09;5022217;28;24463;-76
2022/06/18 03:43:52;;;;;;;3.03;1.75;;;;;;;15.38;80.29;96392.69;5030612;28;24834;-76
2022/06/18 03:46:19;;;;;;;2.50;1.60;;;;;;;15.28;81.10;96391.69;5030595;28;24431;-76
2022/06/18 03:48:49;;;;;;;1.92;1.50;;;;;;;15.29;81.05;96390.75;5030713;28;24424;-76
2022/06/18 03:51:18;;;;;;;2.03;1.27;;;;;;;15.21;82.16;96390.47;5030621;28;24431;-76
2022/06/18 03:53:45;;;;;;;3.20;1.67;;;;;;;15.36;80.42;96391.16;5030591;28;24415;-76
2022/06/18 03:56:13;;;;;;;1.50;1.40;;;;;;;15.27;82.35;96397.00;5030320;28;24423;-76
2022/06/18 03:58:40;;;;;;;2.13;1.52;;;;;;;15.22;82.33;96406.00;5027580;28;24416;-76
2022/06/18 04:01:07;;;;;;;2.67;1.67;;;;;;;15.36;82.02;96404.19;5018572;28;24463;-77
2022/06/18 04:03:34;;;;;;;3.83;2.00;;;;;;;15.27;83.70;96402.22;5029603;28;24977;-76
2022/06/18 04:06:00;;;;;;;3.23;2.10;;;;;;;15.19;84.16;96406.22;5012033;28;24431;-76
2022/06/18 04:08:28;;;;;;;2.47;1.70;;;;;;;15.05;85.00;96401.13;5010179;28;24961;-76
2022/06/18 04:10:54;;;;;;;3.93;2.67;;;;;;;15.08;85.70;96398.31;5010085;28;24561;-77
2022/06/18 04:13:22;;;;;;;3.50;1.92;;;;;;;15.09;84.68;96399.16;5009837;28;24443;-76
2022/06/18 04:15:48;;;;;;;2.88;1.63;;;;;;;15.17;83.60;96399.47;5010065;28;24873;-76
2022/06/18 04:18:15;;;;;;;2.05;1.35;;;;;;;15.24;82.47;96404.13;5013992;28;24785;-76
2022/06/18 04:20:43;;;;;;;2.78;1.88;;;;;;;15.42;83.41;96401.97;5013877;28;24456;-76
2022/06/18 04:23:11;;;;;;;3.10;1.98;;;;;;;15.45;84.28;96396.53;5013864;28;24460;-77
2022/06/18 04:25:40;;;;;;;5.30;2.67;;;;;;;15.70;83.25;96405.22;5014127;28;24612;-77
2022/06/18 04:28:06;;;;;;;5.85;2.35;;;;;;;15.63;82.33;96407.41;5014504;28;24428;-76
2022/06/18 04:30:34;;;;;;;2.42;2.00;;;;;;;15.51;83.36;96405.69;5014493;28;24416;-76
2022/06/18 04:33:01;;;;;;;3.20;2.03;;;;;;;15.54;84.54;96404.66;5014245;28;24479;-76
2022/06/18 04:35:27;;;;;;;4.03;2.53;;;;;;;15.86;83.91;96404.91;5013734;28;24420;-76
2022/06/18 04:37:54;;;;;;;2.83;2.08;;;;;;;15.75;82.73;96407.50;5013970;28;24431;-77
2022/06/18 04:40:23;;;;;;;2.58;1.90;;;;;;;15.78;84.02;96408.09;5013763;28;24853;-77
2022/06/18 04:42:51;;;;;;;2.90;1.83;;;;;;;15.89;84.94;96392.47;5014200;28;24845;-76
2022/06/18 04:45:17;;;;;;;2.60;1.80;;;;;;;15.97;84.97;96397.13;5013833;28;24423;-76
2022/06/18 04:47:44;;;;;;;4.00;2.30;;;;;;;16.36;87.20;96395.09;5013719;28;25029;-76
2022/06/18 04:50:17;;;;;;;3.17;1.90;;;;;;;16.21;88.88;96397.91;5014034;28;24418;-77
2022/06/18 04:52:44;;;;;;;3.80;1.88;;;;;;;16.26;87.60;96399.34;5013651;28;24424;-77
2022/06/18 04:55:11;;;;;;;2.50;1.95;;;;;;;16.34;83.42;96392.56;5013508;28;24424;-77
2022/06/18 04:57:37;;;;;;;2.70;2.00;;;;;;;16.41;83.15;96401.63;5014146;28;24467;-76
2022/06/18 05:00:07;;;;;;;1.70;1.60;;;;;;;16.65;83.31;96393.69;5013738;28;24421;-76
2022/06/18 05:02:35;;;;;;;3.55;1.67;;;;;;;16.75;82.14;96393.00;5013661;28;24526;-76
2022/06/18 05:05:02;;;;;;;3.55;2.00;;;;;;;16.90;80.31;96382.16;5013665;28;24432;-75
2022/06/18 05:07:28;;;;;;;3.83;2.05;;;;;;;16.87;81.16;96392.03;5013393;28;24692;-74
2022/06/18 05:09:55;;;;;;;1.92;1.45;;;;;;;16.95;79.95;96387.06;5013954;28;24439;-77
2022/06/18 05:12:21;;;;;;;2.63;2.00;;;;;;;16.93;77.64;96391.56;5013350;28;24984;-77
2022/06/18 05:14:48;;;;;;;1.75;1.63;;;;;;;17.02;78.82;96383.00;5013691;28;24428;-77
2022/06/18 05:17:21;;;;;;;2.88;2.00;;;;;;;17.15;77.49;96388.09;5013289;28;24416;-77
2022/06/18 05:19:47;;;;;;;1.75;1.52;;;;;;;17.20;72.04;96388.56;5013332;28;24526;-77
2022/06/18 05:22:14;;;;;;;1.92;1.70;;;;;;;17.36;72.24;96390.81;5013028;28;24452;-76
2022/06/18 05:24:40;;;;;;;2.42;1.70;;;;;;;17.45;70.47;96390.06;5013156;28;25003;-76
2022/06/18 05:27:07;;;;;;;2.10;1.40;;;;;;;17.56;69.39;96382.16;5012738;28;24831;-76
2022/06/18 05:29:34;;;;;;;2.63;1.52;;;;;;;17.64;68.90;96382.38;5012085;28;24834;-76
2022/06/18 05:32:00;;;;;;;2.45;1.60;;;;;;;17.63;68.86;96380.72;5013094;28;24467;-76
2022/06/18 05:34:28;;;;;;;2.67;1.70;;;;;;;17.71;68.28;96387.13;5012973;28;24428;-76
2022/06/18 05:36:54;;;;;;;1.70;1.60;;;;;;;17.72;67.97;96389.59;5012874;28;24432;-76
2022/06/18 05:39:21;;;;;;;2.07;1.80;;;;;;;17.61;68.61;96376.53;5012909;28;25039;-76
2022/06/18 05:41:47;;;;;;;4.03;1.67;;;;;;;17.68;67.79;96388.19;5012905;28;24455;-76
2022/06/18 05:44:14;;;;;;;3.80;1.63;;;;;;;17.76;67.71;96390.22;5012868;28;24415;-76
2022/06/18 05:46:41;;;;;;;3.63;1.70;;;;;;;17.70;67.98;96388.06;5012541;28;24420;-76
2022/06/18 05:49:07;;;;;;;4.68;1.60;;;;;;;17.68;68.47;96385.56;5012597;28;24482;-76
2022/06/18 05:51:35;;;;;;;4.10;1.75;;;;;;;17.71;67.62;96385.31;5012713;28;24424;-76
2022/06/18 05:54:02;;;;;;;1.73;1.60;;;;;;;17.85;67.70;96384.22;5012869;28;24419;-76
2022/06/18 05:56:28;;;;;;;3.25;1.70;;;;;;;17.97;67.31;96385.00;5012558;28;24427;-76
2022/06/18 05:58:55;;;;;;;2.28;1.63;;;;;;;18.13;66.94;96385.38;5012756;28;24431;-76
2022/06/18 06:01:21;;;;;;;1.60;1.50;;;;;;;18.18;66.52;96377.97;5012600;28;24448;-76
2022/06/18 06:03:48;;;;;;;1.90;1.40;;;;;;;18.21;66.63;96379.53;5012449;28;25202;-77
2022/06/18 06:06:14;;;;;;;2.20;1.90;;;;;;;18.40;66.27;96386.69;5012560;28;24466;-76
2022/06/18 06:08:42;;;;;;;2.58;1.70;;;;;;;18.64;65.46;96381.94;5012887;28;24416;-77
2022/06/18 06:13:53;;;;;;;2.58;2.10;;;;;;;18.83;64.11;96375.97;5012516;28;24416;-77
2022/06/18 06:16:20;;;;;;;3.30;2.03;;;;;;;18.84;64.59;96383.75;5012126;28;24438;-77
2022/06/18 06:18:47;;;;;;;2.15;1.52;;;;;;;18.95;63.77;96381.97;5012345;28;25021;-77
2022/06/18 06:21:13;;;;;;;3.55;2.20;;;;;;;19.14;63.61;96376.78;5014381;28;24429;-77
2022/06/18 06:23:41;;;;;;;5.32;1.75;;;;;;;19.46;64.09;96381.81;5014964;28;24424;-77
2022/06/18 06:26:17;;;;;;;2.72;1.63;;;;;;;19.87;62.35;96374.69;5014102;28;24424;-77
2022/06/18 06:28:44;;;;;;;7.05;1.98;;;;;;;20.25;60.01;96379.09;5014102;28;24435;-77
2022/06/18 06:31:12;;;;;;;5.00;2.00;;;;;;;20.31;59.00;96380.31;5014383;28;24428;-77
2022/06/18 06:33:38;;;;;;;3.88;1.83;;;;;;;20.33;58.87;96377.56;5014741;28;24960;-77
2022/06/18 06:36:06;;;;;;;2.78;1.67;;;;;;;20.40;59.22;96370.75;5014616;28;24424;-77
2022/06/18 06:38:33;;;;;;;6.20;2.10;;;;;;;20.57;58.59;96361.31;5015304;28;24429;-77
2022/06/18 06:41:01;;;;;;;2.27;1.67;;;;;;;20.82;58.02;96358.03;5014340;28;24455;-77
2022/06/18 06:43:27;;;;;;;2.47;1.80;;;;;;;20.96;58.16;96362.00;5014795;28;24464;-77
2022/06/18 06:45:54;;;;;;;7.20;2.20;;;;;;;21.15;58.56;96359.25;5014839;28;24435;-78
2022/06/18 06:48:20;;;;;;;3.20;2.00;;;;;;;21.51;57.11;96354.06;5014669;28;24439;-77
2022/06/18 06:50:49;;;;;;;7.57;1.75;;;;;;;21.85;56.71;96348.94;5014844;28;24436;-77
2022/06/18 06:53:15;;;;;;;3.53;1.80;;;;;;;;;;5015856;28;24467;-77
2022/06/18 06:58:28;;;;;;;3.40;2.08;;;;;;;22.12;55.08;96352.44;5019038;28;24435;-77
2022/06/18 07:00:58;;;;;;;1.97;1.60;;;;;;;22.07;55.14;96347.63;5018563;28;24464;-77
2022/06/18 07:03:27;;;;;;;5.47;1.80;;;;;;;22.13;55.07;96346.19;5017078;28;24534;-77
2022/06/18 07:05:54;;;;;;;3.92;1.92;;;;;;;22.41;54.96;96347.72;5017382;28;24456;-77
2022/06/18 07:08:21;;;;;;;7.03;1.73;;;;;;;22.54;54.32;96339.38;5013600;28;24431;-77
2022/06/18 07:10:50;;;;;;;2.65;1.90;;;;;;;22.65;53.84;96346.22;5011617;28;24420;-77
2022/06/18 07:13:17;;;;;;;2.75;1.83;;;;;;;22.67;53.95;96342.44;5011288;28;25020;-76
2022/06/18 07:15:47;;;;;;;4.18;1.90;;;;;;;22.77;53.56;96352.03;5011237;28;24420;-77
2022/06/18 07:18:17;;;;;;;3.30;1.80;;;;;;;22.89;53.76;96348.16;5011500;28;24988;-77
2022/06/18 07:20:44;;;;;;;4.43;1.83;;;;;;;23.18;53.11;96339.88;5011119;28;24512;-76
2022/06/18 07:23:11;;;;;;;4.45;1.88;;;;;;;23.31;51.82;96339.41;5011454;28;24447;-77
2022/06/18 07:25:38;;;;;;;6.47;2.05;;;;;;;23.43;50.95;96346.88;5011231;28;24494;-76
2022/06/18 07:28:06;;;;;;;3.07;1.53;;;;;;;23.56;50.27;96343.75;5012665;28;24436;-76
2022/06/18 07:30:33;;;;;;;2.60;1.60;;;;;;;23.78;49.41;96344.97;5016459;28;24428;-78
2022/06/18 07:33:03;;;;;;;3.60;1.50;;;;;;;23.99;48.59;96333.91;5015215;28;24421;-76
2022/06/18 07:35:34;;;;;;;4.00;1.60;;;;;;;24.07;47.47;96339.19;5015196;28;24499;-75
2022/06/18 07:38:00;;;;;;;3.90;1.70;;;;;;;24.33;46.51;96344.28;5013496;28;24780;-75
2022/06/18 07:40:31;;;;;;;3.83;1.50;;;;;;;24.52;46.03;96334.38;5013440;28;24443;-76
2022/06/18 07:42:58;;;;;;;2.77;1.80;;;;;;;24.79;45.17;96336.59;5013281;28;24455;-77
2022/06/18 07:45:26;;;;;;;2.00;1.40;;;;;;;25.02;44.42;96331.34;5013535;28;24437;-76
2022/06/18 07:47:53;;;;;;;3.07;1.77;;;;;;;25.17;44.17;96326.19;5012867;28;24432;-76
2022/06/18 07:50:22;;;;;;;3.97;1.58;;;;;;;25.27;42.71;96333.94;5012444;28;24451;-76
2022/06/18 07:52:49;;;;;;;3.00;1.60;;;;;;;25.44;43.44;96327.53;5012166;28;24783;-76
2022/06/18 07:55:18;;;;;;;3.03;1.67;;;;;;;25.69;42.23;96319.41;5013280;28;24441;-76
2022/06/18 07:57:46;;;;;;;1.98;1.55;;;;;;;25.71;42.52;96331.50;5012887;28;24429;-76
2022/06/18 08:00:16;;;;;;;9.55;1.70;;;;;;;25.89;42.39;96323.28;5016322;28;24502;-76
2022/06/18 08:02:42;;;;;;;2.72;1.50;;;;;;;26.03;41.77;96329.59;5020504;28;24448;-76
2022/06/18 08:05:10;;;;;;;3.95;1.60;;;;;;;26.05;41.81;96325.78;5017474;28;24428;-76
2022/06/18 08:07:39;;;;;;;2.15;1.48;;;;;;;26.16;42.17;96323.72;5012257;28;24440;-76
2022/06/18 08:10:06;;;;;;;2.97;1.90;;;;;;;26.28;41.09;96324.91;5012594;28;24444;-75
2022/06/18 08:12:33;;;;;;;4.50;1.83;;;;;;;26.52;40.48;96321.22;5012958;28;24456;-76
2022/06/18 08:15:01;;;;;;;1.75;1.40;;;;;;;26.53;40.23;96320.22;5012783;28;24428;-76
2022/06/18 08:17:27;;;;;;;2.30;1.60;;;;;;;26.68;39.59;96323.69;5013344;28;24436;-76
2022/06/18 08:19:54;;;;;;;2.67;1.58;;;;;;;26.69;39.37;96321.84;5012920;28;24435;-77
2022/06/18 08:22:22;;;;;;;2.15;1.33;;;;;;;26.75;37.15;96313.16;5009882;28;24515;-76
2022/06/18 08:24:51;;;;;;;3.28;1.45;;;;;;;27.01;37.55;96308.19;5013192;28;24534;-76
2022/06/18 08:27:19;;;;;;;10.60;1.45;;;;;;;27.25;36.45;96312.41;5012653;28;24515;-77
2022/06/18 08:29:46;;;;;;;3.50;1.50;;;;;;;27.38;35.78;96314.38;5012060;28;24429;-76
2022/06/18 08:32:12;;;;;;;2.50;1.20;;;;;;;27.51;34.13;96311.03;5008160;28;24546;-77
2022/06/18 08:37:20;;;;;;;2.78;1.15;;;;;;;27.53;33.72;96305.53;5009824;28;24439;-76
2022/06/18 08:39:46;;;;;;;4.25;1.45;;;;;;;27.86;34.09;96303.22;5010927;28;24931;-76
2022/06/18 08:42:33;;;;;;;1.85;1.17;;;;;;;28.51;33.08;96299.41;5009352;28;24476;-78
2022/06/18 08:45:14;;;;;;;1.20;0.95;;;;;;;28.74;32.60;96293.84;5011167;28;24505;-76
2022/06/18 08:48:02;;;;;;;1.50;1.10;;;;;;;29.09;31.33;96289.28;5009240;28;24435;-76
2022/06/18 08:50:56;;;;;;;2.85;1.10;;;;;;;29.14;31.74;96288.69;5010246;28;25021;-76
2022/06/18 08:53:45;;;;;;;1.25;1.10;;;;;;;28.84;32.55;96288.13;5009059;28;24460;-77
2022/06/18 08:56:21;;;;;;;3.83;1.42;;;;;;;28.56;32.84;96294.34;5012493;28;25032;-77
2022/06/18 08:59:03;;;;;;;2.60;1.33;;;;;;;28.53;33.06;96291.25;5009199;28;24459;-76
2022/06/18 09:01:37;;;;;;;2.50;1.50;;;;;;;28.72;32.58;96289.72;5011616;28;24431;-75
2022/06/18 09:04:18;;;;;;;2.75;1.23;;;;;;;29.06;33.39;96287.00;5015093;28;24512;-77
2022/06/18 09:07:06;;;;;;;3.45;1.50;;;;;;;29.65;31.80;96282.88;5014837;28;24432;-76
2022/06/18 09:09:43;;;;;;;2.38;1.30;;;;;;;29.38;32.24;96272.13;5015150;28;25069;-76
2022/06/18 09:12:17;;;;;;;7.28;1.42;;;;;;;29.57;32.41;96278.53;4995697;28;24437;-75
2022/06/18 09:14:50;;;;;;;2.03;1.20;;;;;;;29.23;32.19;96270.66;4996203;28;24440;-75
2022/06/18 09:17:23;;;;;;;5.53;1.67;;;;;;;29.47;31.69;96270.09;4995663;28;24433;-76
2022/06/18 09:19:56;;;;;;;2.67;1.30;;;;;;;29.84;31.95;96267.91;4996642;28;24438;-75
2022/06/18 09:22:22;;;;;;;3.15;1.50;;;;;;;30.13;30.55;96266.69;4996715;28;24495;-75
2022/06/18 09:24:52;;;;;;;2.63;1.30;;;;;;;30.07;31.15;96273.69;4996296;28;24424;-75
2022/06/18 09:27:24;;;;;;;4.70;1.40;;;;;;;29.75;31.04;96259.28;4996264;28;24425;-75
2022/06/18 09:30:02;;;;;;;2.45;1.35;;;;;;;29.98;32.23;96269.56;4996123;28;25003;-76
2022/06/18 09:32:36;;;;;;;2.38;1.50;;;;;;;30.32;33.71;96257.84;4996497;28;24842;-75
2022/06/18 09:35:08;;;;;;;2.67;1.50;;;;;;;30.71;34.10;96261.47;4996538;28;24430;-76
2022/06/18 09:37:40;;;;;;;3.28;1.38;;;;;;;30.52;31.23;96254.31;4995728;28;24801;-75
2022/06/18 09:40:16;;;;;;;2.53;1.50;;;;;;;30.62;32.53;96263.53;4996251;28;24429;-76
2022/06/18 09:42:48;;;;;;;20.63;3.73;;;;;;;31.09;31.13;96252.69;4996278;28;24966;-76
2022/06/18 09:45:21;;;;;;;4.78;1.60;;;;;;;31.29;30.25;96255.25;4996454;28;24425;-76
2022/06/18 09:47:49;;;;;;;2.27;1.40;;;;;;;31.58;28.87;96257.38;4996223;28;24429;-75
2022/06/18 09:50:22;;;;;;;3.03;1.65;;;;;;;31.98;30.56;96262.47;4996008;28;24432;-75
2022/06/18 09:52:53;;;;;;;7.90;1.92;;;;;;;31.81;29.75;96258.66;5010458;28;24459;-76
2022/06/18 09:55:24;;;;;;;4.67;1.57;;;;;;;31.50;28.94;96256.81;5026387;28;24571;-75
2022/06/18 09:57:55;;;;;;;4.15;1.80;;;;;;;31.86;30.02;96256.19;5035048;28;24431;-75
2022/06/18 10:00:29;;;;;;;5.05;1.60;;;;;;;31.86;27.90;96260.72;5031457;28;24443;-75
2022/06/18 10:03:00;;;;;;;2.47;1.50;;;;;;;31.65;27.61;96259.19;5014673;28;24528;-75
2022/06/18 10:08:24;;;;;;;8.65;1.00;;;;;;;32.15;26.46;96256.53;4984125;28;24439;-76
2022/06/18 10:10:55;;;;;;;6.30;1.25;;;;;;;32.25;27.62;96251.50;5015091;28;24428;-76
2022/06/18 10:13:25;;;;;;;1.38;0.75;;;;;;;32.24;24.04;96252.56;5014490;28;24456;-76
2022/06/18 10:15:57;;;;;;;1.73;0.93;;;;;;;32.12;23.82;96247.09;5014376;28;24957;-76
2022/06/18 10:18:38;;;;;;;3.08;1.00;;;;;;;32.39;22.62;96239.63;5008877;28;24542;-76
2022/06/18 10:21:15;;;;;;;2.63;1.08;;;;;;;32.62;20.99;96236.28;5010759;28;24460;-75
2022/06/18 10:23:55;;;;;;;3.47;1.13;;;;;;;32.53;20.24;96233.09;5008088;28;24436;-75
2022/06/18 10:26:33;;;;;;;4.40;1.20;;;;;;;32.60;20.34;96230.34;5013905;28;24974;-75
2022/06/18 10:29:08;;;;;;;3.70;0.85;;;;;;;32.61;21.00;96221.25;5019359;28;24460;-76
2022/06/18 10:31:48;;;;;;;3.03;1.13;;;;;;;32.80;22.09;96221.25;5019362;28;25044;-76
2022/06/18 10:34:29;;;;;;;6.00;1.30;;;;;;;32.83;21.43;96216.25;5015651;28;24459;-76
2022/06/18 10:37:06;;;;;;;6.50;1.20;;;;;;;32.94;22.35;96212.84;5014888;28;24807;-75
2022/06/18 10:39:41;;;;;;;4.57;1.27;;;;;;;32.84;22.21;96206.34;5013816;28;24443;-75
2022/06/18 10:42:25;;;;;;;6.03;1.40;;;;;;;32.97;22.01;96208.91;5012092;28;24435;-75
2022/06/18 10:45:05;;;;;;;2.88;1.20;;;;;;;32.97;20.83;96208.91;5013175;28;24435;-75
2022/06/18 10:47:36;;;;;;;4.63;1.35;;;;;;;32.70;20.10;96203.00;5012298;28;24459;-75
2022/06/18 10:50:08;;;;;;;6.53;1.40;;;;;;;32.83;22.79;96202.84;5013777;28;24440;-75
2022/06/18 10:52:36;;;;;;;5.90;1.30;;;;;;;32.86;21.76;96204.25;5013671;28;24439;-75
2022/06/18 10:55:13;;;;;;;8.18;1.48;;;;;;;32.92;21.50;96201.47;5014111;28;24503;-76
2022/06/18 10:57:39;;;;;;;5.47;1.52;;;;;;;33.04;21.97;96193.53;5013878;28;24430;-75
2022/06/18 11:00:11;;;;;;;2.50;1.38;;;;;;;32.93;21.69;96195.09;5011267;28;24440;-75
2022/06/18 11:02:40;;;;;;;6.78;1.73;;;;;;;32.97;21.30;96185.56;5014047;28;24996;-75
2022/06/18 11:05:21;;;;;;;6.00;1.80;;;;;;;32.96;22.51;96189.25;5011135;28;24455;-75
2022/06/18 11:07:50;;;;;;;15.13;2.53;;;;;;;32.96;22.91;96181.22;5010571;28;24428;-75
2022/06/18 11:10:36;;;;;;;7.23;2.00;;;;;;;32.90;26.13;96174.06;5012951;28;25104;-75
2022/06/18 11:13:04;;;;;;;4.53;1.77;;;;;;;32.99;23.51;96174.59;5012728;28;24424;-75
2022/06/18 11:15:32;;;;;;;3.35;1.38;;;;;;;32.94;23.06;96175.28;5012937;28;24455;-75
2022/06/18 11:18:03;;;;;;;5.57;1.85;;;;;;;33.08;24.85;96175.91;5014163;28;24435;-76
2022/06/18 11:20:31;;;;;;;4.55;2.00;;;;;;;33.09;24.36;96172.19;5014152;28;24445;-75
2022/06/18 11:23:00;;;;;;;6.10;1.75;;;;;;;32.87;24.75;96171.84;5014366;28;24485;-75
2022/06/18 11:25:31;;;;;;;5.88;1.58;;;;;;;32.75;23.82;96165.59;5014269;28;24444;-76
2022/06/18 11:28:00;;;;;;;6.65;1.80;;;;;;;33.08;23.01;96169.72;5014831;28;24435;-75
2022/06/18 11:30:32;;;;;;;10.93;2.65;;;;;;;33.33;25.08;96175.75;5015248;28;24443;-75
2022/06/18 11:33:02;;;;;;;5.00;1.80;;;;;;;33.08;22.57;96170.56;5014085;28;24468;-75
2022/06/18 11:35:32;;;;;;;6.55;1.63;;;;;;;32.91;23.14;96167.66;5011468;28;24435;-76
2022/06/18 11:38:01;;;;;;;5.53;1.90;;;;;;;33.03;23.11;96165.03;5014490;28;24432;-76
2022/06/18 11:40:29;;;;;;;11.13;2.25;;;;;;;32.94;22.88;96161.88;5011505;28;24433;-76
2022/06/18 11:42:59;;;;;;;10.90;3.00;;;;;;;32.73;22.00;96156.94;5014344;28;24435;-76
2022/06/18 11:45:42;;;;;;;9.75;2.60;;;;;;;32.70;22.12;96155.53;5013317;28;24432;-76
2022/06/18 11:48:23;;;;;;;8.30;2.67;;;;;;;32.73;23.24;96154.28;5010908;28;24436;-75
2022/06/18 11:50:57;;;;;;;12.00;2.28;;;;;;;32.93;23.06;96151.31;5012076;28;24821;-76
2022/06/18 11:53:31;;;;;;;9.00;2.63;;;;;;;33.08;21.81;96143.72;5012751;28;24452;-76
2022/06/18 11:55:58;;;;;;;9.27;3.13;;;;;;;32.83;23.28;96138.47;5013026;28;24429;-74
2022/06/18 11:58:32;;;;;;;13.35;3.17;;;;;;;33.30;23.75;96135.97;5013745;28;24437;-76
2022/06/18 12:01:05;;;;;;;8.15;2.55;;;;;;;33.14;23.76;96137.41;5013591;28;24433;-76
2022/06/18 12:03:38;;;;;;;13.25;3.38;;;;;;;33.18;22.22;96135.09;5011007;28;25188;-75